»·PEaware :: FDX4214 KDEN-KLAX

FDX4214 :: KDEN-KLAX

FLIGHT INFORMATION

Flight Status: Arrived
Operator:
Federal Express
More flights by this operator :: More flights under this callsign
Pilot: Anonymous 12254 (12254)
Aircraft: BOEING 767-300
(B763)
More flights by this aircraft type
Origin: KDEN Denver Intl
United States
Destination: KLAX Los Angeles Intl
United States
More flights between these airports :: More routes between these airports
Route: +CONNR6 DBL CHESZ Q88 HAKMN ANJLL4
File this flight plan on PilotEdge
Remarks:
Altitude:
(Current/Filed)
32,000ft
Speed:
(Current/Filed)
450kts
Departed: 31-Mar-20 08:51 AM
Arrived: 31-Mar-20 10:55 AM
Distance/Time
Traveled:
748nm/2:03
Distance/Time
To Go:
Arrived

Flight Plot

Page will automatically refresh every two minutes.

Flight plan parsing failed; only flown route is shown


Map Options




Map Legend


Flown Route
Filed Route
Departure Airport
Arrival Airport
Navaid (VOR, NDB)
Fix

Horizontal Profiles

Position Reports

Time Latitude Longitude Heading Altitude Ground
Speed
31-Mar-20 08:02 39.830906 -104.676226 359 5445ft 0kts
31-Mar-20 08:03 39.830906 -104.676226 359 5445ft 0kts
31-Mar-20 08:04 39.830906 -104.676226 359 5445ft 0kts
31-Mar-20 08:05 39.830906 -104.676226 359 5445ft 0kts
31-Mar-20 08:06 39.830906 -104.676226 359 5445ft 0kts
31-Mar-20 08:07 39.830906 -104.676226 359 5445ft 0kts
31-Mar-20 08:08 39.830906 -104.676226 359 5445ft 0kts
31-Mar-20 08:09 39.830906 -104.676226 359 5445ft 0kts
31-Mar-20 08:10 39.830906 -104.676226 359 5445ft 0kts
31-Mar-20 08:11 39.830906 -104.676226 359 5445ft 0kts
31-Mar-20 08:12 39.830906 -104.676226 359 5445ft 0kts
31-Mar-20 08:13 39.830906 -104.676226 359 5445ft 0kts
31-Mar-20 08:14 39.830906 -104.676226 359 5445ft 0kts
31-Mar-20 08:15 39.830906 -104.676226 359 5445ft 0kts
31-Mar-20 08:16 39.830906 -104.676226 359 5445ft 0kts
31-Mar-20 08:17 39.830906 -104.676226 359 5445ft 0kts
31-Mar-20 08:18 39.830906 -104.676226 359 5445ft 0kts
31-Mar-20 08:19 39.830906 -104.676226 359 5445ft 0kts
31-Mar-20 08:20 39.830906 -104.676226 359 5445ft 0kts
31-Mar-20 08:21 39.830906 -104.676226 359 5445ft 0kts
31-Mar-20 08:22 39.830906 -104.676226 359 5445ft 0kts
31-Mar-20 08:23 39.830906 -104.676226 359 5445ft 0kts
31-Mar-20 08:24 39.830906 -104.676226 359 5445ft 0kts
31-Mar-20 08:25 39.830906 -104.676226 359 5445ft 0kts
31-Mar-20 08:26 39.830906 -104.676226 359 5445ft 0kts
31-Mar-20 08:27 39.830905 -104.676226 359 5445ft 0kts
31-Mar-20 08:28 39.830275 -104.676233 16 5445ft 7kts
31-Mar-20 08:29 39.830144 -104.675694 89 5445ft 4kts
31-Mar-20 08:30 39.830153 -104.674536 89 5445ft 2kts
31-Mar-20 08:31 39.830161 -104.673559 89 5445ft 2kts
31-Mar-20 08:32 39.830096 -104.672961 115 5445ft 0kts
31-Mar-20 08:33 39.830405 -104.673230 222 5445ft 3kts
31-Mar-20 08:34 39.830096 -104.676864 257 5445ft 5kts
31-Mar-20 08:35 39.829436 -104.677338 183 5445ft 3kts
31-Mar-20 08:36 39.828575 -104.676469 99 5445ft 6kts
31-Mar-20 08:37 39.828535 -104.673455 89 5445ft 9kts
31-Mar-20 08:38 39.829357 -104.670385 83 5445ft 9kts
31-Mar-20 08:39 39.829373 -104.666639 90 5445ft 11kts
31-Mar-20 08:40 39.829359 -104.665332 89 5445ft 0kts
31-Mar-20 08:41 39.829359 -104.665332 89 5445ft 0kts
31-Mar-20 08:42 39.829354 -104.663625 89 5445ft 10kts
31-Mar-20 08:43 39.831876 -104.662674 0 5445ft 11kts
31-Mar-20 08:44 39.835407 -104.662626 0 5445ft 13kts
31-Mar-20 08:45 39.839723 -104.662590 359 5445ft 17kts
31-Mar-20 08:46 39.844951 -104.662518 0 5445ft 20kts
31-Mar-20 08:47 39.851028 -104.662436 359 5445ft 23kts
31-Mar-20 08:48 39.857955 -104.662366 0 5445ft 26kts
31-Mar-20 08:49 39.860145 -104.661548 86 5445ft 9kts
31-Mar-20 08:50 39.842353 -104.660358 180 5446ft 171kts
31-Mar-20 08:51 39.778623 -104.674827 224 6791ft 270kts
31-Mar-20 08:52 39.787131 -104.761869 304 8633ft 280kts
31-Mar-20 08:53 39.823856 -104.851516 293 9842ft 281kts
31-Mar-20 08:54 39.833533 -104.947929 257 10576ft 283kts
31-Mar-20 08:55 39.814341 -105.047589 255 11680ft 285kts
31-Mar-20 08:56 39.794033 -105.148852 255 12716ft 288kts
31-Mar-20 08:57 39.773605 -105.249947 255 13716ft 290kts
31-Mar-20 08:59 39.752860 -105.351824 255 14716ft 292kts
31-Mar-20 09:00 39.731983 -105.453862 256 15907ft 293kts
31-Mar-20 09:01 39.710815 -105.556852 256 17401ft 296kts
31-Mar-20 09:02 39.689838 -105.659490 256 18871ft 298kts
31-Mar-20 09:03 39.675206 -105.764417 261 20371ft 302kts
31-Mar-20 09:04 39.660821 -105.869924 261 21852ft 306kts
31-Mar-20 09:05 39.646121 -105.976725 261 23327ft 310kts
31-Mar-20 09:06 39.630979 -106.085921 262 24807ft 315kts
31-Mar-20 09:07 39.615406 -106.197433 262 26288ft 320kts
31-Mar-20 09:08 39.599337 -106.311659 263 27774ft 325kts
31-Mar-20 09:09 39.582900 -106.427573 263 29245ft 327kts
31-Mar-20 09:10 39.566371 -106.543275 264 30694ft 324kts
31-Mar-20 09:11 39.550149 -106.655227 261 32082ft 315kts
31-Mar-20 09:12 39.506169 -106.757346 245 32162ft 354kts
31-Mar-20 09:13 39.453013 -106.866629 245 32144ft 356kts
31-Mar-20 09:14 39.409368 -106.979950 252 32142ft 350kts
31-Mar-20 09:14 39.374601 -107.079790 251 32149ft 380kts
31-Mar-20 09:16 39.320756 -107.232884 251 32380ft 421kts
31-Mar-20 09:17 39.271622 -107.371624 251 32423ft 422kts
31-Mar-20 09:17 39.230714 -107.486759 251 32423ft 422kts
31-Mar-20 09:19 39.173311 -107.647571 251 32420ft 423kts
31-Mar-20 09:20 39.124220 -107.784329 250 32290ft 412kts
31-Mar-20 09:21 39.076783 -107.916032 250 32339ft 410kts
31-Mar-20 09:21 39.036721 -108.026729 250 32319ft 409kts
31-Mar-20 09:22 38.988508 -108.159447 250 32308ft 410kts
31-Mar-20 09:24 38.931608 -108.315282 249 32299ft 413kts
31-Mar-20 09:24 38.890829 -108.426465 249 32291ft 414kts
31-Mar-20 09:25 38.841418 -108.560585 248 32281ft 415kts
31-Mar-20 09:26 38.792392 -108.693086 248 32293ft 416kts
31-Mar-20 09:27 38.742729 -108.826751 248 32289ft 415kts
31-Mar-20 09:28 38.692861 -108.960341 248 32296ft 415kts
31-Mar-20 09:29 38.642857 -109.093714 248 32292ft 416kts
31-Mar-20 09:30 38.592714 -109.226872 248 32265ft 415kts
31-Mar-20 09:31 38.542322 -109.360097 248 32267ft 416kts
31-Mar-20 09:32 38.491931 -109.492750 248 32263ft 416kts
31-Mar-20 09:33 38.441311 -109.625421 248 32259ft 416kts
31-Mar-20 09:34 38.390475 -109.758070 248 32282ft 416kts
31-Mar-20 09:35 38.339583 -109.890289 247 32273ft 416kts
31-Mar-20 09:36 38.288545 -110.022326 248 32266ft 416kts
31-Mar-20 09:37 38.234814 -110.152902 246 32251ft 416kts
31-Mar-20 09:38 38.180618 -110.283099 246 32251ft 416kts
31-Mar-20 09:39 38.126488 -110.412622 246 32250ft 417kts
31-Mar-20 09:40 38.072050 -110.542352 246 32247ft 416kts
31-Mar-20 09:41 38.017568 -110.671654 245 32307ft 416kts
31-Mar-20 09:42 37.962755 -110.801201 245 32333ft 416kts
31-Mar-20 09:43 37.908012 -110.930079 245 32315ft 416kts
31-Mar-20 09:44 37.853132 -111.058763 245 32318ft 418kts
31-Mar-20 09:45 37.797742 -111.188086 245 32324ft 418kts
31-Mar-20 09:46 37.742140 -111.317377 245 32339ft 419kts
31-Mar-20 09:47 37.686273 -111.446779 245 32338ft 419kts
31-Mar-20 09:48 37.630445 -111.575574 245 32344ft 419kts
31-Mar-20 09:49 37.574384 -111.704341 244 32359ft 419kts
31-Mar-20 09:50 37.518265 -111.832816 244 32383ft 419kts
31-Mar-20 09:51 37.453288 -111.955731 238 32379ft 422kts
31-Mar-20 09:52 37.385274 -112.075739 238 32376ft 423kts
31-Mar-20 09:53 37.316752 -112.195977 238 32382ft 422kts
31-Mar-20 09:54 37.248041 -112.316085 238 32391ft 422kts
31-Mar-20 09:55 37.179667 -112.435171 238 32385ft 422kts
31-Mar-20 09:56 37.110744 -112.554790 238 32386ft 422kts
31-Mar-20 09:57 37.042583 -112.672650 238 32384ft 415kts
31-Mar-20 09:58 36.975259 -112.788674 237 32391ft 411kts
31-Mar-20 09:59 36.907800 -112.904545 237 32428ft 414kts
31-Mar-20 10:00 36.840007 -113.020579 237 32427ft 414kts
31-Mar-20 10:01 36.772166 -113.136288 237 32430ft 413kts
31-Mar-20 10:02 36.704131 -113.251929 237 32400ft 415kts
31-Mar-20 10:03 36.635756 -113.367769 237 32393ft 413kts
31-Mar-20 10:04 36.567572 -113.482890 237 32190ft 416kts
31-Mar-20 10:05 36.499433 -113.597519 237 32379ft 414kts
31-Mar-20 10:06 36.430917 -113.712416 237 32389ft 414kts
31-Mar-20 10:07 36.362441 -113.826853 237 32387ft 413kts
31-Mar-20 10:08 36.293676 -113.941406 236 32385ft 414kts
31-Mar-20 10:09 36.224910 -114.055557 236 32344ft 414kts
31-Mar-20 10:10 36.155735 -114.170021 236 32328ft 415kts
31-Mar-20 10:11 36.086306 -114.283866 234 32315ft 415kts
31-Mar-20 10:12 36.009619 -114.391084 232 32325ft 417kts
31-Mar-20 10:13 35.932551 -114.497870 232 32323ft 417kts
31-Mar-20 10:14 35.855270 -114.604508 232 32324ft 418kts
31-Mar-20 10:15 35.778075 -114.710697 232 32343ft 417kts
31-Mar-20 10:16 35.700538 -114.817005 232 32333ft 417kts
31-Mar-20 10:17 35.622941 -114.923062 232 32328ft 417kts
31-Mar-20 10:18 35.544810 -115.029524 232 32336ft 421kts
31-Mar-20 10:19 35.465015 -115.135824 230 32322ft 418kts
31-Mar-20 10:20 35.387513 -115.236981 231 32189ft 409kts
31-Mar-20 10:21 35.309757 -115.338178 231 32175ft 408kts
31-Mar-20 10:22 35.231831 -115.439300 231 32173ft 408kts
31-Mar-20 10:23 35.153540 -115.540593 231 32178ft 408kts
31-Mar-20 10:24 35.075315 -115.641057 231 32197ft 408kts
31-Mar-20 10:25 34.996900 -115.741165 230 31630ft 401kts
31-Mar-20 10:26 34.921399 -115.837306 230 30356ft 386kts
31-Mar-20 10:27 34.848176 -115.930310 230 29182ft 376kts
31-Mar-20 10:28 34.776210 -116.021474 230 27920ft 373kts
31-Mar-20 10:29 34.705360 -116.111745 230 26673ft 368kts
31-Mar-20 10:30 34.634916 -116.201309 230 25417ft 364kts
31-Mar-20 10:31 34.564896 -116.290092 231 24395ft 362kts
31-Mar-20 10:32 34.495556 -116.377803 230 24143ft 363kts
31-Mar-20 10:33 34.425785 -116.465946 232 24125ft 361kts
31-Mar-20 10:34 34.378365 -116.570844 246 24094ft 355kts
31-Mar-20 10:35 34.334201 -116.677741 246 23863ft 353kts
31-Mar-20 10:36 34.292585 -116.781220 246 22855ft 340kts
31-Mar-20 10:37 34.251267 -116.883704 246 21720ft 338kts
31-Mar-20 10:38 34.210357 -116.986174 251 20215ft 336kts
31-Mar-20 10:39 34.181336 -117.093218 254 18720ft 335kts
31-Mar-20 10:40 34.152223 -117.200025 254 17218ft 333kts
31-Mar-20 10:41 34.123008 -117.306136 254 15710ft 330kts
31-Mar-20 10:42 34.095021 -117.411307 255 14205ft 326kts
31-Mar-20 10:43 34.070583 -117.516322 262 12696ft 320kts
31-Mar-20 10:44 34.055284 -117.621857 254 11998ft 320kts
31-Mar-20 10:45 34.001341 -117.708569 251 10438ft 324kts
31-Mar-20 10:46 33.992359 -117.815532 266 8624ft 318kts
31-Mar-20 10:47 33.983479 -117.919522 264 7857ft 310kts
31-Mar-20 10:48 33.973686 -118.022521 264 6178ft 308kts
31-Mar-20 10:49 33.963635 -118.124108 263 4447ft 292kts
31-Mar-20 10:50 33.954706 -118.212184 263 3111ft 231kts
31-Mar-20 10:51 33.950393 -118.281405 277 2233ft 198kts
31-Mar-20 10:52 33.948250 -118.343706 241 1372ft 197kts
31-Mar-20 10:53 33.935231 -118.402999 262 125ft 166kts
31-Mar-20 10:54 33.932785 -118.417805 122 124ft 8kts
31-Mar-20 10:55 33.933079 -118.412666 83 129ft 29kts
31-Mar-20 10:56 33.933790 -118.403066 163 123ft 9kts
31-Mar-20 10:57 33.932958 -118.402948 173 123ft 0kts

Navigation Log

Ident Type
Flight plan parsing failed, navigation log unavailable